Aérodrome :
LOGIN :

S'inscrire | Disclaimer

   EN    FR    IT 

 










Légende :    VFR   VFR Marginal   IFR   IFR Intensif   IFR Très Intensif
Visi : 
Plafond : 
>= 8 km
>= 3000ft
5 à 8 km
1000 à 3000 ft
1500m à 5 km
500 à 1000 ft
800 à 1500m
200 à 500 ft
< 800m
< 200 ft
Symboles :   Orages  Brouillard  Fortes neiges  Fortes précipitations  Vent > 20 kt
SIGMETs :   Divers  Orages  Givrage  Turbulence  Onde Orograph.  Cendres Volcan.







- Altitude de l'aérodrome : 157 ft
- Code IATA : LIL
- Voir les cartes d'approche


LFQQ - Lille Lesquin

DERNIER METAR :
  • 231600Z AUTO 27031G44KT 9999 3700 BKN039 BKN047 10/03 Q0996 NOSIG

METARs EXPIRÉS :
  • 231530Z AUTO 27031G47KT 9999 3400 OVC038 10/03 Q0996 NOSIG
  • 231500Z AUTO 26030G44KT 9999 3300 OVC038 10/03 Q0995 NOSIG
  • 231430Z AUTO 26033G45KT 9999 BKN036 OVC045 11/04 Q0995 NOSIG
  • 231400Z AUTO 26034G48KT 9999 BKN039 OVC046 11/04 Q0995 NOSIG
  • 231330Z AUTO 26034G47KT 9999 BKN037 OVC046 11/04 Q0995 NOSIG
  • 231300Z AUTO 26033G45KT 9999 BKN034 BKN040 12/05 Q0995 NOSIG

TAF TAF LFQQ
Valide du 23 à 12h jusqu'au 24 à 18h UTC


231100Z 2312/2418 25025G45KT 9999 BKN040
BECMG 2319/2321 30020G35KT
BECMG 2322/2324 30008KT
PROB40
TEMPO 2400/2414 4000 SHRA BKN020TCU
ATIS : +33 3 20 16 19 54
Pas de NOTAMs connus pour ce terrain.
2 SIGMETs publiés pour la FIR Paris (LFFF) :
 
Turbulence forte
LFFF SIGMET 4 VALID 231600/232000 LFPW
LFFF PARIS FIR/UIR SEV TURB FCST N OF N4830 SFC/FL050 MOV NE 25KT WKN=
Turbulence forte
LFFF SIGMET 3 VALID 231300/231600 LFPW
LFFF PARIS FIR/UIR SEV TURB FCST N OF LINE N4815 W00015 - N4745 E00445 SFC/FL050 MOV NE 20KT NC=



MET'MAP, la Météo Aéronautique d'un coup d'oeil ! - Copyright ORBIFLY Décembre 2007 - Disclaimer

ORBIFLY MET'MAP TEAM :

Programmation & Développement : Alexandra Zaïnal
Conception & Développement : Baudouin d'Aumeries
Co-Programmation & Développement : Marc-Olivier Méhu
Soutien technique & logistique : Manuel Goepfert

Contact : metmap@orbifly.com




SOURCES & CREDITS :

   NOAA